createdAt,value
2017-09-24T00:00:37.579Z,100952.46
2017-09-24T00:03:07.437Z,100956.08
2017-09-24T00:05:36.632Z,100953.83
2017-09-24T00:08:05.690Z,100953.24
2017-09-24T00:10:35.601Z,100953.88
2017-09-24T00:13:04.717Z,100950.04
2017-09-24T00:15:34.540Z,100951.21
2017-09-24T00:18:03.626Z,100948.25
2017-09-24T00:20:33.479Z,100951.86
2017-09-24T00:23:02.789Z,100953.94
2017-09-24T00:25:31.853Z,100953.86
2017-09-24T00:28:00.933Z,100956.40
2017-09-24T00:30:29.997Z,100955.92
2017-09-24T00:33:00.587Z,100953.89
2017-09-24T00:35:29.676Z,100951.69
2017-09-24T00:37:58.817Z,100950.97
2017-09-24T00:40:29.407Z,100951.69
2017-09-24T00:42:58.828Z,100950.89
2017-09-24T00:45:27.881Z,100950.70
2017-09-24T00:47:57.735Z,100957.11
2017-09-24T00:50:26.913Z,100949.09
2017-09-24T00:52:56.083Z,100944.77
2017-09-24T00:55:25.938Z,100942.04
2017-09-24T00:57:55.016Z,100943.45
2017-09-24T01:00:24.109Z,100944.12
2017-09-24T01:02:53.164Z,100934.23
2017-09-24T01:05:22.283Z,100933.67
2017-09-24T01:07:52.126Z,100930.16
2017-09-24T01:10:21.552Z,100928.06
2017-09-24T01:12:50.616Z,100931.03
2017-09-24T01:15:19.692Z,100938.05
2017-09-24T01:17:48.794Z,100930.92
2017-09-24T01:20:18.608Z,100932.65
2017-09-24T01:22:47.688Z,100941.38
2017-09-24T01:25:17.533Z,100936.33
2017-09-24T01:27:46.579Z,100937.69
2017-09-24T01:30:16.420Z,100941.26
2017-09-24T01:32:46.255Z,100936.53
2017-09-24T01:35:15.385Z,100934.28
2017-09-24T01:37:44.425Z,100933.56
2017-09-24T01:40:14.258Z,100927.24
2017-09-24T01:42:43.310Z,100919.47
2017-09-24T01:45:13.137Z,100927.36
2017-09-24T01:47:43.023Z,100925.70
2017-09-24T01:50:12.088Z,100928.52
2017-09-24T01:52:41.183Z,100925.07
2017-09-24T01:55:10.280Z,100930.12
2017-09-24T01:57:39.355Z,100927.72
2017-09-24T02:00:08.441Z,100923.74
2017-09-24T02:02:38.293Z,100928.23
2017-09-24T02:05:07.368Z,100929.72
2017-09-24T02:07:36.438Z,100929.40
2017-09-24T02:10:05.633Z,100930.59
2017-09-24T02:12:35.456Z,100919.78
2017-09-24T02:15:04.607Z,100926.99
2017-09-24T02:17:33.684Z,100927.95
2017-09-24T02:20:02.755Z,100920.75
2017-09-24T02:22:31.827Z,100923.34
2017-09-24T02:25:01.711Z,100922.70
2017-09-24T02:27:32.256Z,100926.23
2017-09-24T02:30:02.120Z,100918.53
2017-09-24T02:32:31.212Z,100924.94
2017-09-24T02:35:00.270Z,100925.75
2017-09-24T02:37:30.096Z,100929.11
2017-09-24T02:39:59.193Z,100926.70
2017-09-24T02:42:28.566Z,100930.63
2017-09-24T02:44:58.085Z,100925.63
2017-09-24T02:47:27.111Z,100929.72
2017-09-24T02:49:56.195Z,100928.12
2017-09-24T02:52:25.254Z,100929.19
2017-09-24T02:54:54.321Z,100929.43
2017-09-24T02:57:23.396Z,100928.55
2017-09-24T02:59:52.451Z,100924.55
2017-09-24T03:02:22.298Z,100924.98
2017-09-24T03:04:51.384Z,100925.48
2017-09-24T03:07:20.490Z,100927.17
2017-09-24T03:09:49.537Z,100925.19
2017-09-24T03:12:20.128Z,100917.84
2017-09-24T03:14:49.360Z,100916.64
2017-09-24T03:17:19.215Z,100921.16
2017-09-24T03:19:48.284Z,100914.50
2017-09-24T03:22:18.370Z,100917.55
2017-09-24T03:24:47.445Z,100913.95
2017-09-24T03:27:16.497Z,100911.25
2017-09-24T03:29:46.326Z,100894.20
2017-09-24T03:32:15.398Z,100898.03
2017-09-24T03:34:44.473Z,100897.09
2017-09-24T03:37:15.186Z,100899.26
2017-09-24T03:39:44.287Z,100902.16
2017-09-24T03:42:13.359Z,100896.62
2017-09-24T03:44:42.429Z,100899.98
2017-09-24T03:47:12.250Z,100894.63
2017-09-24T03:49:41.425Z,100892.46
2017-09-24T03:52:11.292Z,100887.24
2017-09-24T03:54:40.368Z,100893.41
2017-09-24T03:57:09.463Z,100896.06
2017-09-24T03:59:38.536Z,100902.01
2017-09-24T04:02:08.348Z,100898.48
2017-09-24T04:04:38.198Z,100895.52
2017-09-24T04:07:07.267Z,100897.73
2017-09-24T04:09:36.344Z,100895.68
2017-09-24T04:12:05.400Z,100902.97
2017-09-24T04:14:34.473Z,100899.61
2017-09-24T04:17:03.524Z,100894.94
2017-09-24T04:19:33.376Z,100895.64
2017-09-24T04:22:02.440Z,100895.73
2017-09-24T04:24:32.316Z,100903.51
2017-09-24T04:27:01.393Z,100905.02
2017-09-24T04:29:30.466Z,100910.23
2017-09-24T04:31:59.560Z,100911.19
2017-09-24T04:34:29.451Z,100915.37
2017-09-24T04:36:58.537Z,100914.56
2017-09-24T04:39:27.681Z,100917.61
2017-09-24T04:41:56.899Z,100919.21
2017-09-24T04:44:25.958Z,100915.12
2017-09-24T04:46:55.019Z,100915.59
2017-09-24T04:49:24.108Z,100918.03
2017-09-24T04:51:53.517Z,100912.81
2017-09-24T04:54:24.117Z,100910.16
2017-09-24T04:56:53.184Z,100911.29
2017-09-24T04:59:22.248Z,100913.12
2017-09-24T05:01:52.085Z,100919.63
2017-09-24T05:04:21.153Z,100923.66
2017-09-24T05:06:50.228Z,100918.52
2017-09-24T05:09:19.312Z,100925.97
2017-09-24T05:11:48.374Z,100930.17
2017-09-24T05:14:17.453Z,100928.48
2017-09-24T05:16:47.266Z,100928.63
2017-09-24T05:19:17.119Z,100932.88
2017-09-24T05:21:46.177Z,100936.65
2017-09-24T05:24:16.065Z,100936.34
2017-09-24T05:26:45.089Z,100938.84
2017-09-24T05:29:14.945Z,100940.36
2017-09-24T05:31:44.025Z,100943.99
2017-09-24T05:34:13.244Z,100947.92
2017-09-24T05:36:42.329Z,100941.77
2017-09-24T05:39:11.415Z,100948.19
2017-09-24T05:41:40.487Z,100940.14
2017-09-24T05:44:09.554Z,100947.23
2017-09-24T05:46:38.694Z,100931.66
2017-09-24T05:49:07.826Z,100940.48
2017-09-24T05:51:36.904Z,100941.03
2017-09-24T05:54:05.971Z,100936.06
2017-09-24T05:56:35.017Z,100940.32
2017-09-24T05:59:05.619Z,100932.72
2017-09-24T06:01:34.681Z,100938.08
2017-09-24T06:04:03.759Z,100937.28
2017-09-24T06:06:33.128Z,100942.41
2017-09-24T06:09:02.363Z,100941.69
2017-09-24T06:11:32.196Z,100932.64
2017-09-24T06:14:02.065Z,100936.97
2017-09-24T06:16:31.126Z,100940.32
2017-09-24T06:19:00.183Z,100941.63
2017-09-24T06:21:30.243Z,100936.17
2017-09-24T06:23:59.325Z,100946.43
2017-09-24T06:26:28.486Z,100950.43
2017-09-24T06:28:57.537Z,100957.11
2017-09-24T06:31:26.629Z,100955.41
2017-09-24T06:33:55.681Z,100957.08
2017-09-24T06:36:25.542Z,100966.94
2017-09-24T06:38:54.588Z,100962.09
2017-09-24T06:41:24.631Z,100965.86
2017-09-24T06:43:53.686Z,100968.98
2017-09-24T06:46:22.778Z,100970.77
2017-09-24T06:48:51.841Z,100975.86
2017-09-24T06:51:20.922Z,100968.73
2017-09-24T06:53:50.004Z,100965.61
2017-09-24T06:56:19.072Z,100979.41
2017-09-24T06:58:48.907Z,100973.95
2017-09-24T07:01:18.751Z,100973.75
2017-09-24T07:03:47.921Z,100972.45
2017-09-24T07:06:17.104Z,100972.70
2017-09-24T07:08:46.167Z,100967.72
2017-09-24T07:11:15.225Z,100967.80
2017-09-24T07:13:44.298Z,100964.66
2017-09-24T07:16:14.136Z,100972.37
2017-09-24T07:18:43.203Z,100969.30
2017-09-24T07:21:13.061Z,100971.86
2017-09-24T07:23:42.121Z,100976.30
2017-09-24T07:26:11.189Z,100981.41
2017-09-24T07:28:41.043Z,100986.97
2017-09-24T07:31:10.116Z,100988.88
2017-09-24T07:33:39.199Z,100987.95
2017-09-24T07:36:09.027Z,100993.61
2017-09-24T07:38:38.864Z,100990.41
2017-09-24T07:41:07.944Z,100987.75
2017-09-24T07:43:37.001Z,100990.48
2017-09-24T07:46:06.095Z,100995.38
2017-09-24T07:48:35.180Z,100999.78
2017-09-24T07:51:04.256Z,100996.55
2017-09-24T07:53:33.336Z,100997.69
2017-09-24T07:56:02.419Z,100992.78
2017-09-24T07:58:31.479Z,100992.86
2017-09-24T08:01:00.552Z,101001.76
2017-09-24T08:03:29.637Z,100998.39
2017-09-24T08:05:58.704Z,100998.12
2017-09-24T08:08:27.799Z,101000.82
2017-09-24T08:10:56.858Z,100994.05
2017-09-24T08:13:26.726Z,100993.28
2017-09-24T08:15:55.780Z,100992.62
2017-09-24T08:18:25.640Z,100992.73
2017-09-24T08:20:54.707Z,100992.23
2017-09-24T08:23:23.762Z,100990.62
2017-09-24T08:25:52.867Z,100988.56
2017-09-24T08:28:21.959Z,100992.61
2017-09-24T08:30:51.044Z,100995.29
2017-09-24T08:33:20.107Z,100996.83
2017-09-24T08:35:49.197Z,101002.25
2017-09-24T08:38:18.502Z,101003.42
2017-09-24T08:40:47.574Z,101004.44
2017-09-24T08:43:16.671Z,101011.78
2017-09-24T08:45:45.726Z,101010.25
2017-09-24T08:48:14.797Z,101004.34
2017-09-24T08:50:43.867Z,101005.06
2017-09-24T08:53:12.948Z,101011.53
2017-09-24T08:55:42.029Z,101009.78
2017-09-24T08:58:11.899Z,101012.83
2017-09-24T09:00:40.956Z,101006.05
2017-09-24T09:03:10.035Z,101009.14
2017-09-24T09:05:39.913Z,101006.83
2017-09-24T09:08:08.980Z,101012.25
2017-09-24T09:10:38.056Z,101010.80
2017-09-24T09:13:07.134Z,101005.95
2017-09-24T09:15:37.020Z,101012.02
2017-09-24T09:18:06.122Z,101013.85
2017-09-24T09:20:35.259Z,101000.67
2017-09-24T09:23:04.352Z,100998.05
2017-09-24T09:25:34.218Z,101001.93
2017-09-24T09:28:03.304Z,101001.81
2017-09-24T09:30:32.355Z,101007.01
2017-09-24T09:33:19.339Z,101014.80
2017-09-24T09:35:48.431Z,101011.80
2017-09-24T09:38:18.301Z,101014.17
2017-09-24T09:40:47.390Z,101012.09
2017-09-24T09:46:39.588Z,101017.28
2017-09-24T09:49:08.685Z,101010.92
2017-09-24T09:51:37.788Z,101011.89
2017-09-24T09:54:07.629Z,101011.09
2017-09-24T09:56:36.717Z,101012.30
2017-09-24T09:59:06.545Z,101019.52
2017-09-24T10:01:35.605Z,101005.31
2017-09-24T10:04:04.711Z,101006.23
2017-09-24T10:06:47.499Z,100998.02
2017-09-24T10:09:34.324Z,101005.58
2017-09-24T10:12:04.943Z,101009.18
2017-09-24T10:14:34.168Z,101008.27
2017-09-24T10:17:04.071Z,101007.22
2017-09-24T10:19:33.142Z,100999.45
2017-09-24T10:22:02.203Z,100997.34
2017-09-24T10:24:31.307Z,100999.16
2017-09-24T10:27:00.526Z,100997.61
2017-09-24T10:29:29.592Z,100997.34
2017-09-24T10:32:03.702Z,100992.87
2017-09-24T10:34:32.781Z,100989.06
2017-09-24T10:37:02.600Z,100990.27
2017-09-24T10:39:32.456Z,100982.17
2017-09-24T10:42:01.552Z,100977.33
2017-09-24T10:44:30.604Z,100984.78
2017-09-24T10:47:00.497Z,100983.45
2017-09-24T10:49:29.537Z,100979.61
2017-09-24T10:51:58.596Z,100986.91
2017-09-24T10:54:27.681Z,100978.58
2017-09-24T10:56:56.739Z,100979.05
2017-09-24T10:59:25.834Z,100975.91
2017-09-24T11:01:54.987Z,100975.48
2017-09-24T11:04:24.924Z,100978.11
2017-09-24T11:06:54.017Z,100982.81
2017-09-24T11:09:23.085Z,100985.48
2017-09-24T11:11:53.095Z,100984.11
2017-09-24T11:14:22.188Z,100981.97
2017-09-24T11:16:51.240Z,100982.20
2017-09-24T11:19:20.329Z,100985.31
2017-09-24T11:21:49.562Z,100986.28
2017-09-24T11:24:18.749Z,100989.09
2017-09-24T11:26:48.014Z,100981.69
2017-09-24T11:29:17.401Z,100990.59
2017-09-24T11:31:47.273Z,100986.17
2017-09-24T11:34:16.781Z,100985.35
2017-09-24T11:36:46.284Z,100983.36
2017-09-24T11:39:15.411Z,100989.05
2017-09-24T11:41:44.549Z,100982.75
2017-09-24T11:44:13.639Z,100982.87
2017-09-24T11:46:42.729Z,100979.19
2017-09-24T11:49:11.845Z,100983.67
2017-09-24T11:51:40.935Z,100977.80
2017-09-24T11:54:10.009Z,100975.49
2017-09-24T11:56:39.085Z,100983.75
2017-09-24T11:59:08.942Z,100976.73
2017-09-24T12:01:38.017Z,100982.14
2017-09-24T12:04:07.068Z,100985.21
2017-09-24T12:06:36.235Z,100977.47
2017-09-24T12:09:05.288Z,100974.75
2017-09-24T12:11:35.114Z,100970.20
2017-09-24T12:14:04.180Z,100968.43
2017-09-24T12:16:34.060Z,100977.41
2017-09-24T12:19:03.134Z,100978.97
2017-09-24T12:21:32.220Z,100982.17
2017-09-24T12:24:02.073Z,100975.71
2017-09-24T12:26:31.164Z,100975.80
2017-09-24T12:29:00.232Z,100971.28
2017-09-24T12:31:29.322Z,100975.23
2017-09-24T12:33:58.384Z,100970.39
2017-09-24T12:36:28.265Z,100972.20
2017-09-24T12:38:57.351Z,100973.15
2017-09-24T12:41:26.448Z,100970.94
2017-09-24T12:43:55.520Z,100968.77
2017-09-24T12:46:24.585Z,100965.30
2017-09-24T12:48:54.424Z,100961.52
2017-09-24T12:51:23.502Z,100966.56
2017-09-24T12:53:53.349Z,100966.10
2017-09-24T12:56:22.439Z,100954.33
2017-09-24T12:58:51.506Z,100955.12
2017-09-24T13:01:21.348Z,100949.66
2017-09-24T13:03:50.486Z,100949.05
2017-09-24T13:06:20.441Z,100952.39
2017-09-24T13:08:49.500Z,100951.59
2017-09-24T13:11:18.576Z,100944.75
2017-09-24T13:13:47.668Z,100945.35
2017-09-24T13:16:16.747Z,100950.37
2017-09-24T13:18:45.821Z,100950.89
2017-09-24T13:21:14.887Z,100946.20
2017-09-24T13:23:44.707Z,100945.14
2017-09-24T13:26:14.596Z,100950.39
2017-09-24T13:28:43.658Z,100941.10
2017-09-24T13:31:12.746Z,100946.38
2017-09-24T13:33:41.836Z,100951.27
2017-09-24T13:36:10.916Z,100946.81
2017-09-24T13:38:40.756Z,100946.94
2017-09-24T13:41:09.839Z,100943.85
2017-09-24T13:43:38.882Z,100940.52
2017-09-24T13:46:09.556Z,100942.78
2017-09-24T13:48:38.624Z,100941.27
2017-09-24T13:51:08.537Z,100948.00
2017-09-24T13:53:37.628Z,100939.16
2017-09-24T13:56:06.739Z,100949.84
2017-09-24T13:58:36.587Z,100937.86
2017-09-24T14:01:05.641Z,100944.09
2017-09-24T14:03:35.484Z,100931.91
2017-09-24T14:06:04.567Z,100929.86
2017-09-24T14:08:33.632Z,100932.44
2017-09-24T14:11:02.720Z,100929.73
2017-09-24T14:13:32.426Z,100925.04
2017-09-24T14:16:01.484Z,100921.44
2017-09-24T14:18:30.572Z,100924.48
2017-09-24T14:20:59.664Z,100926.62
2017-09-24T14:23:28.727Z,100926.03
2017-09-24T14:25:58.585Z,100924.14
2017-09-24T14:28:27.677Z,100922.73
2017-09-24T14:30:56.930Z,100927.66
2017-09-24T14:33:26.001Z,100926.69
2017-09-24T14:35:55.102Z,100930.33
2017-09-24T14:38:24.169Z,100923.75
2017-09-24T14:40:53.265Z,100928.37
2017-09-24T14:43:22.337Z,100927.36
2017-09-24T14:45:52.167Z,100926.95
2017-09-24T14:48:21.258Z,100927.87
2017-09-24T14:50:50.328Z,100927.44
2017-09-24T14:53:20.178Z,100924.53
2017-09-24T14:55:49.253Z,100926.31
2017-09-24T14:58:19.086Z,100924.26
2017-09-24T15:00:48.395Z,100926.23
2017-09-24T15:03:17.436Z,100929.08
2017-09-24T15:05:47.304Z,100930.27
2017-09-24T15:08:16.376Z,100932.84
2017-09-24T15:10:45.456Z,100927.92
2017-09-24T15:13:15.295Z,100930.52
2017-09-24T15:15:44.371Z,100928.20
2017-09-24T15:18:13.471Z,100930.93
2017-09-24T15:20:43.540Z,100929.65
2017-09-24T15:23:12.616Z,100937.05
2017-09-24T15:25:41.685Z,100929.92
2017-09-24T15:28:10.733Z,100927.38
2017-09-24T15:30:40.681Z,100933.10
2017-09-24T15:33:10.537Z,100934.30
2017-09-24T15:35:39.631Z,100932.27
2017-09-24T15:38:08.720Z,100930.12
2017-09-24T15:40:37.815Z,100936.19
2017-09-24T15:43:06.881Z,100931.53
2017-09-24T15:45:36.967Z,100933.59
2017-09-24T15:48:06.176Z,100927.29
2017-09-24T15:50:36.011Z,100922.23
2017-09-24T15:53:05.103Z,100925.61
2017-09-24T15:55:34.947Z,100928.05
2017-09-24T15:58:04.057Z,100923.86
2017-09-24T16:00:33.116Z,100923.67
2017-09-24T16:03:02.183Z,100920.80
2017-09-24T16:05:32.064Z,100915.16
2017-09-24T16:08:01.128Z,100914.00
2017-09-24T16:10:30.201Z,100911.73
2017-09-24T16:13:00.145Z,100907.66
2017-09-24T16:15:29.997Z,100909.66
2017-09-24T16:17:59.053Z,100903.14
2017-09-24T16:20:28.128Z,100909.08
2017-09-24T16:22:57.953Z,100905.70
2017-09-24T16:25:27.026Z,100906.16
2017-09-24T16:27:57.818Z,100909.06
2017-09-24T16:30:26.879Z,100912.55
2017-09-24T16:32:55.975Z,100905.88
2017-09-24T16:35:25.034Z,100912.81
2017-09-24T16:37:54.108Z,100923.48
2017-09-24T16:40:23.168Z,100924.59
2017-09-24T16:42:52.225Z,100927.87
2017-09-24T16:45:22.067Z,100927.01
2017-09-24T16:47:51.160Z,100937.40
2017-09-24T16:50:20.212Z,100942.42
2017-09-24T16:52:49.293Z,100935.88
2017-09-24T16:55:18.356Z,100935.80
2017-09-24T16:57:47.416Z,100942.53
2017-09-24T17:00:16.481Z,100937.28
2017-09-24T17:02:46.325Z,100937.38
2017-09-24T17:05:18.329Z,100934.63
2017-09-24T17:07:47.404Z,100940.23
2017-09-24T17:10:17.204Z,100937.59
2017-09-24T17:12:46.280Z,100942.55
2017-09-24T17:15:15.327Z,100943.23
2017-09-24T17:17:44.729Z,100948.32
2017-09-24T17:20:14.286Z,100940.67
2017-09-24T17:22:43.348Z,100941.41
2017-09-24T17:25:12.467Z,100945.13
2017-09-24T17:27:41.528Z,100949.40
2017-09-24T17:30:10.623Z,100949.30
2017-09-24T17:32:39.691Z,100957.69
2017-09-24T17:35:09.581Z,100949.94
2017-09-24T17:37:38.756Z,100957.39
2017-09-24T17:40:08.117Z,100954.78
2017-09-24T17:42:37.992Z,100957.00
2017-09-24T17:45:07.499Z,100954.30
2017-09-24T17:47:38.094Z,100955.63
2017-09-24T17:50:07.378Z,100946.03
2017-09-24T17:52:36.545Z,100947.48
2017-09-24T17:55:06.764Z,100948.11
2017-09-24T17:57:35.868Z,100948.28
2017-09-24T18:00:05.712Z,100946.16
2017-09-24T18:02:34.797Z,100957.18
2017-09-24T18:05:03.882Z,100951.59
2017-09-24T18:07:32.997Z,100960.34
2017-09-24T18:10:02.055Z,100962.73
2017-09-24T18:12:31.959Z,100963.66
2017-09-24T18:15:01.034Z,100963.56
2017-09-24T18:17:30.132Z,100965.67
2017-09-24T18:19:59.230Z,100963.89
2017-09-24T18:22:28.292Z,100963.76
2017-09-24T18:24:57.392Z,100960.25
2017-09-24T18:27:26.711Z,100964.61
2017-09-24T18:29:55.792Z,100970.08
2017-09-24T18:32:24.843Z,100966.12
2017-09-24T18:34:54.716Z,100967.66
2017-09-24T18:37:23.830Z,100963.20
2017-09-24T18:39:52.896Z,100972.52
2017-09-24T18:42:22.016Z,100967.52
2017-09-24T18:44:51.100Z,100965.87
2017-09-24T18:47:20.223Z,100967.81
2017-09-24T18:49:50.041Z,100969.61
2017-09-24T18:52:19.900Z,100971.36
2017-09-24T18:54:49.143Z,100968.51
2017-09-24T18:57:19.214Z,100974.19
2017-09-24T18:59:48.878Z,100977.30
2017-09-24T19:02:18.736Z,100980.04
2017-09-24T19:04:47.931Z,100983.32
2017-09-24T19:07:18.138Z,100980.23
2017-09-24T19:09:47.270Z,100981.69
2017-09-24T19:12:16.357Z,100982.14
2017-09-24T19:14:45.640Z,100977.15
2017-09-24T19:17:15.097Z,100980.06
2017-09-24T19:19:44.968Z,100964.99
2017-09-24T19:22:14.179Z,100968.02
2017-09-24T19:24:43.523Z,100971.33
2017-09-24T19:27:12.785Z,100971.98
2017-09-24T19:29:41.980Z,100972.03
2017-09-24T19:32:11.376Z,100963.59
2017-09-24T19:34:40.529Z,100966.55
2017-09-24T19:37:09.758Z,100962.22
2017-09-24T19:39:39.140Z,100967.84
2017-09-24T19:42:08.354Z,100966.77
2017-09-24T19:44:37.711Z,100965.83
2017-09-24T19:47:07.021Z,100964.11
2017-09-24T19:49:36.186Z,100972.25
2017-09-24T19:52:05.281Z,100974.98
2017-09-24T19:54:34.384Z,100981.84
2017-09-24T19:57:04.117Z,100983.06
2017-09-24T19:59:33.194Z,100985.05
2017-09-24T20:02:02.284Z,100975.47
2017-09-24T20:04:31.381Z,100980.95
2017-09-24T20:07:00.486Z,100975.47
2017-09-24T20:09:29.569Z,100981.94
2017-09-24T20:11:59.504Z,100978.25
2017-09-24T20:14:28.565Z,100978.73
2017-09-24T20:16:57.679Z,100973.59
2017-09-24T20:19:26.760Z,100970.45
2017-09-24T20:21:56.616Z,100970.86
2017-09-24T20:24:26.466Z,100960.64
2017-09-24T20:26:56.492Z,100961.23
2017-09-24T20:29:25.598Z,100970.19
2017-09-24T20:31:54.668Z,100966.48
2017-09-24T20:34:23.753Z,100970.42
2017-09-24T20:36:52.843Z,100968.06
2017-09-24T20:39:22.688Z,100979.15
2017-09-24T20:41:51.755Z,100970.49
2017-09-24T20:44:21.571Z,100969.86
2017-09-24T20:46:50.947Z,100969.30
2017-09-24T20:49:19.987Z,100963.48
2017-09-24T20:51:49.073Z,100961.82
2017-09-24T20:54:18.146Z,100963.19
2017-09-24T20:56:47.998Z,100964.86
2017-09-24T20:59:17.074Z,100961.09
2017-09-24T21:01:46.130Z,100963.71
2017-09-24T21:04:15.241Z,100960.58
2017-09-24T21:06:45.351Z,100953.81
2017-09-24T21:09:14.854Z,100964.86
2017-09-24T21:11:43.926Z,100967.48
2017-09-24T21:14:12.994Z,100966.24
2017-09-24T21:16:42.070Z,100968.41
2017-09-24T21:19:11.923Z,100977.81
2017-09-24T21:21:41.029Z,100973.31
2017-09-24T21:24:10.054Z,100968.34
2017-09-24T21:26:40.117Z,100963.78
2017-09-24T21:29:09.208Z,100968.06
2017-09-24T21:31:38.310Z,100962.06
2017-09-24T21:34:07.379Z,100965.95
2017-09-24T21:36:36.459Z,100968.38
2017-09-24T21:39:06.267Z,100964.68
2017-09-24T21:41:36.108Z,100962.75
2017-09-24T21:44:05.474Z,100963.98
2017-09-24T21:46:34.520Z,100959.22
2017-09-24T21:49:03.608Z,100959.22
2017-09-24T21:51:32.664Z,100955.62
2017-09-24T21:54:02.516Z,100963.19
2017-09-24T21:56:31.586Z,100963.19
2017-09-24T21:59:01.447Z,100957.48
2017-09-24T22:01:30.856Z,100956.69
2017-09-24T22:03:59.932Z,100953.69
2017-09-24T22:06:29.000Z,100961.83
2017-09-24T22:08:58.584Z,100959.09
2017-09-24T22:11:28.435Z,100949.03
2017-09-24T22:13:57.519Z,100944.56
2017-09-24T22:16:26.597Z,100950.36
2017-09-24T22:18:56.435Z,100947.80
2017-09-24T22:21:25.508Z,100939.77
2017-09-24T22:23:55.339Z,100949.56
2017-09-24T22:26:24.419Z,100944.27
2017-09-24T22:28:54.649Z,100947.96
2017-09-24T22:31:23.727Z,100946.13
2017-09-24T22:33:53.543Z,100936.33
2017-09-24T22:36:23.371Z,100934.33
2017-09-24T22:38:52.451Z,100941.33
2017-09-24T22:41:22.317Z,100949.98
2017-09-24T22:43:51.492Z,100940.20
2017-09-24T22:46:20.579Z,100945.19
2017-09-24T22:48:49.665Z,100946.89
2017-09-24T22:51:19.547Z,100945.52
2017-09-24T22:53:48.620Z,100943.52
2017-09-24T22:56:17.920Z,100942.80
2017-09-24T22:58:46.997Z,100948.44
2017-09-24T23:01:16.076Z,100944.97
2017-09-24T23:03:45.144Z,100946.50
2017-09-24T23:06:15.325Z,100948.90
2017-09-24T23:08:44.795Z,100948.42
2017-09-24T23:11:13.875Z,100941.53
2017-09-24T23:13:43.709Z,100949.78
2017-09-24T23:16:12.798Z,100943.38
2017-09-24T23:18:41.927Z,100940.98
2017-09-24T23:21:11.802Z,100946.50
2017-09-24T23:23:40.869Z,100945.14
2017-09-24T23:26:10.137Z,100945.48
2017-09-24T23:28:39.216Z,100948.19
2017-09-24T23:31:08.289Z,100943.92
2017-09-24T23:33:38.131Z,100940.47
2017-09-24T23:36:07.184Z,100946.83
2017-09-24T23:38:37.047Z,100943.44
2017-09-24T23:41:06.104Z,100936.92
2017-09-24T23:43:35.186Z,100936.12
2017-09-24T23:46:05.008Z,100939.34
2017-09-24T23:48:35.215Z,100939.75
2017-09-24T23:51:04.332Z,100936.35
2017-09-24T23:53:33.427Z,100934.20
2017-09-24T23:56:03.230Z,100945.66
2017-09-24T23:58:33.304Z,100938.20
